Walnut City, Iowa
Current Conditions -  °F | °C
As of 12:30 PM on Thursday 27 Nov 2014 (Local Time) from KTVK Reporting Station
Clear Clear  
Wind Chill: -13°   Ceiling: Unl
Heat Index: -7°   Visibility: 10mi
Dew Point: -12°   Wind: 8mph
Humidity: 68%   Direction: 280°W
Pressure: 30.5"   Gusts: NA
Location:  40.8017°N, 92.9289°W
Report Text: KTVK 271830Z AUTO 28007KT 10SM CLR M07/M12 A3050 RMK AO2
Loading
Personal Weather Stations






























Interactive Weather Map New forecast layout! Learn more

10-Day Weather Forecast

Advertisements
Track Severe Weather on mobile